sensor_id;sensor_type;location;lat;lon;timestamp;pressure;altitude;pressure_sealevel;temperature;humidity
67457;BME280;54319;52.038;4.640;2023-09-07T00:02:15;102016.09;;;19.08;100.00
67457;BME280;54319;52.038;4.640;2023-09-07T00:04:43;102014.41;;;19.07;100.00
67457;BME280;54319;52.038;4.640;2023-09-07T00:07:10;102016.94;;;19.09;100.00
67457;BME280;54319;52.038;4.640;2023-09-07T00:09:37;102014.91;;;19.04;100.00
67457;BME280;54319;52.038;4.640;2023-09-07T00:12:04;102007.19;;;19.06;100.00
67457;BME280;54319;52.038;4.640;2023-09-07T00:14:31;102011.06;;;19.05;100.00
67457;BME280;54319;52.038;4.640;2023-09-07T00:16:58;102006.88;;;19.03;100.00
67457;BME280;54319;52.038;4.640;2023-09-07T00:19:24;102012.88;;;19.00;100.00
67457;BME280;54319;52.038;4.640;2023-09-07T00:21:52;102010.56;;;18.97;100.00
67457;BME280;54319;52.038;4.640;2023-09-07T00:24:19;102009.97;;;18.94;100.00
67457;BME280;54319;52.038;4.640;2023-09-07T00:26:46;102013.78;;;18.93;100.00
67457;BME280;54319;52.038;4.640;2023-09-07T00:29:13;102003.22;;;18.90;100.00
67457;BME280;54319;52.038;4.640;2023-09-07T00:31:39;102011.38;;;18.85;100.00
67457;BME280;54319;52.038;4.640;2023-09-07T00:34:06;102007.19;;;18.83;100.00
67457;BME280;54319;52.038;4.640;2023-09-07T00:36:33;102001.66;;;18.83;100.00
67457;BME280;54319;52.038;4.640;2023-09-07T00:39:01;102010.19;;;18.81;100.00
67457;BME280;54319;52.038;4.640;2023-09-07T00:41:27;102006.34;;;18.82;100.00
67457;BME280;54319;52.038;4.640;2023-09-07T00:43:54;102005.72;;;18.80;100.00
67457;BME280;54319;52.038;4.640;2023-09-07T00:46:21;102008.16;;;18.76;100.00
67457;BME280;54319;52.038;4.640;2023-09-07T00:48:48;102007.78;;;18.73;100.00
67457;BME280;54319;52.038;4.640;2023-09-07T00:51:15;102004.03;;;18.67;100.00
67457;BME280;54319;52.038;4.640;2023-09-07T00:53:41;101979.63;;;18.52;100.00
67457;BME280;54319;52.038;4.640;2023-09-07T00:56:10;101953.19;;;18.32;100.00
67457;BME280;54319;52.038;4.640;2023-09-07T00:58:37;101999.56;;;18.54;100.00
67457;BME280;54319;52.038;4.640;2023-09-07T01:01:04;101997.28;;;18.51;100.00
67457;BME280;54319;52.038;4.640;2023-09-07T01:03:31;101994.41;;;18.46;100.00
67457;BME280;54319;52.038;4.640;2023-09-07T01:06:01;101949.41;;;18.15;100.00
67457;BME280;54319;52.038;4.640;2023-09-07T01:08:34;101988.38;;;18.37;100.00
67457;BME280;54319;52.038;4.640;2023-09-07T01:11:01;101980.19;;;18.30;100.00
67457;BME280;54319;52.038;4.640;2023-09-07T01:13:39;101994.00;;;18.30;100.00
67457;BME280;54319;52.038;4.640;2023-09-07T01:16:07;101987.88;;;18.28;100.00
67457;BME280;54319;52.038;4.640;2023-09-07T01:18:35;101991.13;;;18.25;100.00
67457;BME280;54319;52.038;4.640;2023-09-07T01:21:05;101982.31;;;18.16;100.00
67457;BME280;54319;52.038;4.640;2023-09-07T01:23:34;101987.97;;;18.21;100.00
67457;BME280;54319;52.038;4.640;2023-09-07T01:26:01;101984.00;;;18.17;100.00
67457;BME280;54319;52.038;4.640;2023-09-07T01:28:28;101954.38;;;17.94;100.00
67457;BME280;54319;52.038;4.640;2023-09-07T01:30:56;101981.94;;;18.13;100.00
67457;BME280;54319;52.038;4.640;2023-09-07T01:33:23;101979.44;;;18.11;100.00
67457;BME280;54319;52.038;4.640;2023-09-07T01:35:49;101974.72;;;18.12;100.00
67457;BME280;54319;52.038;4.640;2023-09-07T01:38:16;101986.25;;;18.08;100.00
67457;BME280;54319;52.038;4.640;2023-09-07T01:40:44;101975.69;;;18.05;100.00
67457;BME280;54319;52.038;4.640;2023-09-07T01:43:11;101974.84;;;18.05;100.00
67457;BME280;54319;52.038;4.640;2023-09-07T01:45:38;101972.75;;;18.00;100.00
67457;BME280;54319;52.038;4.640;2023-09-07T01:48:07;101979.78;;;18.03;100.00
67457;BME280;54319;52.038;4.640;2023-09-07T01:50:34;101976.16;;;18.02;100.00
67457;BME280;54319;52.038;4.640;2023-09-07T01:53:00;101978.28;;;18.00;100.00
67457;BME280;54319;52.038;4.640;2023-09-07T01:55:28;101973.66;;;18.01;100.00
67457;BME280;54319;52.038;4.640;2023-09-07T01:57:56;101974.69;;;18.00;100.00
67457;BME280;54319;52.038;4.640;2023-09-07T02:00:23;101971.06;;;17.99;100.00
67457;BME280;54319;52.038;4.640;2023-09-07T02:02:49;101974.91;;;17.98;100.00
67457;BME280;54319;52.038;4.640;2023-09-07T02:05:16;101978.75;;;17.97;100.00
67457;BME280;54319;52.038;4.640;2023-09-07T02:07:43;101983.41;;;17.97;100.00
67457;BME280;54319;52.038;4.640;2023-09-07T02:10:10;101974.53;;;17.94;100.00
67457;BME280;54319;52.038;4.640;2023-09-07T02:12:37;101981.38;;;17.92;100.00
67457;BME280;54319;52.038;4.640;2023-09-07T02:15:06;101986.91;;;17.92;100.00
67457;BME280;54319;52.038;4.640;2023-09-07T02:17:32;101987.84;;;17.86;100.00
67457;BME280;54319;52.038;4.640;2023-09-07T02:19:59;101995.50;;;17.84;100.00
67457;BME280;54319;52.038;4.640;2023-09-07T02:22:25;101994.91;;;17.82;100.00
67457;BME280;54319;52.038;4.640;2023-09-07T02:24:52;101984.09;;;17.80;100.00
67457;BME280;54319;52.038;4.640;2023-09-07T02:27:19;101989.59;;;17.80;100.00
67457;BME280;54319;52.038;4.640;2023-09-07T02:29:45;101989.22;;;17.76;100.00
67457;BME280;54319;52.038;4.640;2023-09-07T02:32:13;101988.13;;;17.77;100.00
67457;BME280;54319;52.038;4.640;2023-09-07T02:34:40;101991.16;;;17.76;100.00
67457;BME280;54319;52.038;4.640;2023-09-07T02:37:08;101982.47;;;17.72;100.00
67457;BME280;54319;52.038;4.640;2023-09-07T02:39:34;101979.34;;;17.69;100.00
67457;BME280;54319;52.038;4.640;2023-09-07T02:42:01;101981.50;;;17.67;100.00
67457;BME280;54319;52.038;4.640;2023-09-07T02:44:28;101984.72;;;17.63;100.00
67457;BME280;54319;52.038;4.640;2023-09-07T02:46:54;101985.16;;;17.60;100.00
67457;BME280;54319;52.038;4.640;2023-09-07T02:49:22;101993.09;;;17.57;100.00
67457;BME280;54319;52.038;4.640;2023-09-07T02:51:49;101980.59;;;17.54;100.00
67457;BME280;54319;52.038;4.640;2023-09-07T02:54:16;101984.19;;;17.55;100.00
67457;BME280;54319;52.038;4.640;2023-09-07T02:56:42;101990.78;;;17.54;100.00
67457;BME280;54319;52.038;4.640;2023-09-07T02:59:09;101981.91;;;17.52;100.00
67457;BME280;54319;52.038;4.640;2023-09-07T03:01:38;101988.50;;;17.50;100.00
67457;BME280;54319;52.038;4.640;2023-09-07T03:04:05;101984.75;;;17.45;100.00
67457;BME280;54319;52.038;4.640;2023-09-07T03:06:34;101994.00;;;17.50;100.00
67457;BME280;54319;52.038;4.640;2023-09-07T03:09:00;101995.09;;;17.49;100.00
67457;BME280;54319;52.038;4.640;2023-09-07T03:11:27;101991.72;;;17.47;100.00
67457;BME280;54319;52.038;4.640;2023-09-07T03:13:58;101982.84;;;17.45;100.00
67457;BME280;54319;52.038;4.640;2023-09-07T03:16:25;101994.47;;;17.47;100.00
67457;BME280;54319;52.038;4.640;2023-09-07T03:18:52;101990.88;;;17.47;100.00
67457;BME280;54319;52.038;4.640;2023-09-07T03:21:18;101988.34;;;17.45;100.00
67457;BME280;54319;52.038;4.640;2023-09-07T03:23:46;101981.97;;;17.45;100.00
67457;BME280;54319;52.038;4.640;2023-09-07T03:26:13;101984.53;;;17.46;100.00
67457;BME280;54319;52.038;4.640;2023-09-07T03:28:40;101983.06;;;17.44;100.00
67457;BME280;54319;52.038;4.640;2023-09-07T03:31:06;101979.47;;;17.43;100.00
67457;BME280;54319;52.038;4.640;2023-09-07T03:33:33;101979.47;;;17.43;100.00
67457;BME280;54319;52.038;4.640;2023-09-07T03:35:59;101981.59;;;17.41;100.00
67457;BME280;54319;52.038;4.640;2023-09-07T03:38:26;101977.38;;;17.39;100.00
67457;BME280;54319;52.038;4.640;2023-09-07T03:40:54;101935.25;;;17.13;100.00
67457;BME280;54319;52.038;4.640;2023-09-07T03:43:21;101979.75;;;17.35;100.00
67457;BME280;54319;52.038;4.640;2023-09-07T03:45:48;101981.22;;;17.38;100.00
67457;BME280;54319;52.038;4.640;2023-09-07T03:48:14;101981.69;;;17.34;100.00
67457;BME280;54319;52.038;4.640;2023-09-07T03:50:41;101974.09;;;17.30;100.00
67457;BME280;54319;52.038;4.640;2023-09-07T03:53:08;101979.13;;;17.33;100.00
67457;BME280;54319;52.038;4.640;2023-09-07T03:55:40;101985.28;;;17.35;100.00
67457;BME280;54319;52.038;4.640;2023-09-07T03:58:08;101982.03;;;17.38;100.00
67457;BME280;54319;52.038;4.640;2023-09-07T04:00:38;101979.06;;;17.40;100.00
67457;BME280;54319;52.038;4.640;2023-09-07T04:03:05;101974.38;;;17.40;100.00
67457;BME280;54319;52.038;4.640;2023-09-07T04:05:32;101984.59;;;17.40;100.00
67457;BME280;54319;52.038;4.640;2023-09-07T04:07:59;101983.72;;;17.39;100.00
67457;BME280;54319;52.038;4.640;2023-09-07T04:10:28;101986.75;;;17.38;100.00
67457;BME280;54319;52.038;4.640;2023-09-07T04:12:54;101991.84;;;17.34;100.00
67457;BME280;54319;52.038;4.640;2023-09-07T04:15:22;101995.06;;;17.31;100.00
67457;BME280;54319;52.038;4.640;2023-09-07T04:17:50;101987.88;;;17.30;100.00
67457;BME280;54319;52.038;4.640;2023-09-07T04:20:17;101996.84;;;17.25;100.00
67457;BME280;54319;52.038;4.640;2023-09-07T04:22:44;101996.47;;;17.21;100.00
67457;BME280;54319;52.038;4.640;2023-09-07T04:25:10;101994.38;;;17.17;100.00
67457;BME280;54319;52.038;4.640;2023-09-07T04:27:37;101996.31;;;17.16;100.00
67457;BME280;54319;52.038;4.640;2023-09-07T04:30:05;102001.66;;;17.11;100.00
67457;BME280;54319;52.038;4.640;2023-09-07T04:32:33;102002.75;;;17.10;100.00
67457;BME280;54319;52.038;4.640;2023-09-07T04:34:59;101996.63;;;17.08;100.00
67457;BME280;54319;52.038;4.640;2023-09-07T04:37:27;101995.34;;;17.04;100.00
67457;BME280;54319;52.038;4.640;2023-09-07T04:39:53;102004.69;;;17.03;100.00
67457;BME280;54319;52.038;4.640;2023-09-07T04:42:20;101985.06;;;16.92;100.00
67457;BME280;54319;52.038;4.640;2023-09-07T04:44:47;102005.75;;;17.02;100.00
67457;BME280;54319;52.038;4.640;2023-09-07T04:47:14;102000.72;;;16.99;100.00
67457;BME280;54319;52.038;4.640;2023-09-07T04:49:48;102001.31;;;17.01;100.00
67457;BME280;54319;52.038;4.640;2023-09-07T04:52:15;102003.63;;;17.04;100.00
67457;BME280;54319;52.038;4.640;2023-09-07T04:54:43;102004.88;;;17.08;100.00
67457;BME280;54319;52.038;4.640;2023-09-07T04:57:09;101999.13;;;17.10;100.00
67457;BME280;54319;52.038;4.640;2023-09-07T04:59:36;102008.63;;;17.14;100.00
67457;BME280;54319;52.038;4.640;2023-09-07T05:02:03;102005.19;;;17.18;100.00
67457;BME280;54319;52.038;4.640;2023-09-07T05:04:29;102008.56;;;17.20;100.00
67457;BME280;54319;52.038;4.640;2023-09-07T05:06:58;101999.28;;;17.15;100.00
67457;BME280;54319;52.038;4.640;2023-09-07T05:09:24;102008.56;;;17.20;100.00
67457;BME280;54319;52.038;4.640;2023-09-07T05:11:53;102010.09;;;17.16;100.00
67457;BME280;54319;52.038;4.640;2023-09-07T05:14:20;102019.44;;;17.15;100.00
67457;BME280;54319;52.038;4.640;2023-09-07T05:16:46;102014.38;;;17.12;100.00
67457;BME280;54319;52.038;4.640;2023-09-07T05:19:14;102018.81;;;17.13;100.00
67457;BME280;54319;52.038;4.640;2023-09-07T05:21:41;102019.28;;;17.10;100.00
67457;BME280;54319;52.038;4.640;2023-09-07T05:24:09;102025.25;;;17.07;100.00
67457;BME280;54319;52.038;4.640;2023-09-07T05:26:35;102030.16;;;17.05;100.00
67457;BME280;54319;52.038;4.640;2023-09-07T05:29:02;102022.75;;;16.99;100.00
67457;BME280;54319;52.038;4.640;2023-09-07T05:31:29;102015.09;;;17.01;100.00
67457;BME280;54319;52.038;4.640;2023-09-07T05:33:55;102018.72;;;17.01;100.00
67457;BME280;54319;52.038;4.640;2023-09-07T05:36:22;102015.97;;;17.01;100.00
67457;BME280;54319;52.038;4.640;2023-09-07T05:38:49;102025.91;;;17.02;100.00
67457;BME280;54319;52.038;4.640;2023-09-07T05:41:17;102021.22;;;17.03;100.00
67457;BME280;54319;52.038;4.640;2023-09-07T05:43:43;102015.91;;;17.08;100.00
67457;BME280;54319;52.038;4.640;2023-09-07T05:46:10;102026.03;;;17.14;100.00
67457;BME280;54319;52.038;4.640;2023-09-07T05:48:36;102017.03;;;17.19;100.00
67457;BME280;54319;52.038;4.640;2023-09-07T05:51:03;102019.13;;;17.24;100.00
67457;BME280;54319;52.038;4.640;2023-09-07T05:53:30;102022.91;;;17.29;100.00
67457;BME280;54319;52.038;4.640;2023-09-07T05:55:56;102036.22;;;17.32;100.00
67457;BME280;54319;52.038;4.640;2023-09-07T05:58:25;102030.00;;;17.37;100.00
67457;BME280;54319;52.038;4.640;2023-09-07T06:00:52;102033.38;;;17.39;100.00
67457;BME280;54319;52.038;4.640;2023-09-07T06:03:19;102034.22;;;17.40;100.00
67457;BME280;54319;52.038;4.640;2023-09-07T06:05:46;102017.75;;;17.33;100.00
67457;BME280;54319;52.038;4.640;2023-09-07T06:08:12;102032.03;;;17.48;100.00
67457;BME280;54319;52.038;4.640;2023-09-07T06:10:39;102039.84;;;17.52;100.00
67457;BME280;54319;52.038;4.640;2023-09-07T06:13:06;102037.09;;;17.52;100.00
67457;BME280;54319;52.038;4.640;2023-09-07T06:15:34;102045.97;;;17.54;100.00
67457;BME280;54319;52.038;4.640;2023-09-07T06:18:00;101997.84;;;17.31;100.00
67457;BME280;54319;52.038;4.640;2023-09-07T06:20:28;102048.03;;;17.58;100.00
67457;BME280;54319;52.038;4.640;2023-09-07T06:22:55;102040.34;;;17.60;100.00
67457;BME280;54319;52.038;4.640;2023-09-07T06:25:22;102046.25;;;17.64;100.00
67457;BME280;54319;52.038;4.640;2023-09-07T06:27:48;102050.50;;;17.67;100.00
67457;BME280;54319;52.038;4.640;2023-09-07T06:30:15;102054.47;;;17.71;100.00
67457;BME280;54319;52.038;4.640;2023-09-07T06:32:43;102063.13;;;17.74;100.00
67457;BME280;54319;52.038;4.640;2023-09-07T06:35:10;102062.66;;;17.77;100.00
67457;BME280;54319;52.038;4.640;2023-09-07T06:37:36;102066.66;;;17.82;100.00
67457;BME280;54319;52.038;4.640;2023-09-07T06:40:07;102061.75;;;17.84;100.00
67457;BME280;54319;52.038;4.640;2023-09-07T06:42:35;102063.81;;;17.88;100.00
67457;BME280;54319;52.038;4.640;2023-09-07T06:45:01;102057.59;;;17.93;100.00
67457;BME280;54319;52.038;4.640;2023-09-07T06:47:28;102059.88;;;17.96;100.00
67457;BME280;54319;52.038;4.640;2023-09-07T06:49:56;102055.41;;;18.02;100.00
67457;BME280;54319;52.038;4.640;2023-09-07T06:52:23;102062.50;;;18.10;100.00
67457;BME280;54319;52.038;4.640;2023-09-07T06:54:52;102038.56;;;18.03;100.00
67457;BME280;54319;52.038;4.640;2023-09-07T06:57:19;102053.56;;;18.26;100.00
67457;BME280;54319;52.038;4.640;2023-09-07T06:59:47;102026.25;;;18.18;100.00
67457;BME280;54319;52.038;4.640;2023-09-07T07:02:14;102059.63;;;18.47;100.00
67457;BME280;54319;52.038;4.640;2023-09-07T07:04:40;102059.09;;;18.69;100.00
67457;BME280;54319;52.038;4.640;2023-09-07T07:07:10;102062.00;;;18.86;100.00
67457;BME280;54319;52.038;4.640;2023-09-07T07:09:37;102019.31;;;18.70;100.00
67457;BME280;54319;52.038;4.640;2023-09-07T07:12:04;102069.38;;;19.04;100.00
67457;BME280;54319;52.038;4.640;2023-09-07T07:14:31;102062.88;;;19.10;100.00
67457;BME280;54319;52.038;4.640;2023-09-07T07:16:57;102061.91;;;19.16;100.00
67457;BME280;54319;52.038;4.640;2023-09-07T07:19:24;102064.91;;;19.27;100.00
67457;BME280;54319;52.038;4.640;2023-09-07T07:21:51;102066.00;;;19.37;100.00
67457;BME280;54319;52.038;4.640;2023-09-07T07:24:19;102057.22;;;19.41;100.00
67457;BME280;54319;52.038;4.640;2023-09-07T07:26:46;102068.47;;;19.63;100.00
67457;BME280;54319;52.038;4.640;2023-09-07T07:29:13;102056.19;;;19.94;100.00
67457;BME280;54319;52.038;4.640;2023-09-07T07:31:39;102058.09;;;20.23;100.00
67457;BME280;54319;52.038;4.640;2023-09-07T07:34:06;102054.63;;;20.62;100.00
67457;BME280;54319;52.038;4.640;2023-09-07T07:36:33;102065.06;;;21.85;100.00
67457;BME280;54319;52.038;4.640;2023-09-07T07:38:59;102062.16;;;23.60;89.59
67457;BME280;54319;52.038;4.640;2023-09-07T07:41:27;102061.59;;;25.25;78.24
67457;BME280;54319;52.038;4.640;2023-09-07T07:43:54;102061.09;;;26.73;71.25
67457;BME280;54319;52.038;4.640;2023-09-07T07:46:20;102022.81;;;27.52;63.40
67457;BME280;54319;52.038;4.640;2023-09-07T07:48:47;102054.38;;;28.59;60.32
67457;BME280;54319;52.038;4.640;2023-09-07T07:51:14;102058.69;;;29.03;54.60
67457;BME280;54319;52.038;4.640;2023-09-07T07:53:40;102044.38;;;29.47;52.91
67457;BME280;54319;52.038;4.640;2023-09-07T07:56:14;102053.19;;;29.82;51.18
67457;BME280;54319;52.038;4.640;2023-09-07T07:58:43;102053.44;;;30.09;50.74
67457;BME280;54319;52.038;4.640;2023-09-07T08:01:14;102047.41;;;30.15;50.22
67457;BME280;54319;52.038;4.640;2023-09-07T08:03:41;102040.81;;;30.43;49.05
67457;BME280;54319;52.038;4.640;2023-09-07T08:06:08;102051.91;;;30.62;49.28
67457;BME280;54319;52.038;4.640;2023-09-07T08:08:35;102043.09;;;30.78;48.48
67457;BME280;54319;52.038;4.640;2023-09-07T08:11:01;102038.34;;;30.64;47.70
67457;BME280;54319;52.038;4.640;2023-09-07T08:13:31;102047.44;;;30.61;47.96
67457;BME280;54319;52.038;4.640;2023-09-07T08:15:59;102043.00;;;30.23;49.08
67457;BME280;54319;52.038;4.640;2023-09-07T08:18:26;102040.38;;;29.76;51.91
67457;BME280;54319;52.038;4.640;2023-09-07T08:20:52;102044.97;;;28.69;53.36
67457;BME280;54319;52.038;4.640;2023-09-07T08:23:20;102043.31;;;27.91;56.13
67457;BME280;54319;52.038;4.640;2023-09-07T08:25:47;102029.94;;;27.15;58.48
67457;BME280;54319;52.038;4.640;2023-09-07T08:28:14;102028.69;;;26.67;61.65
67457;BME280;54319;52.038;4.640;2023-09-07T08:30:41;102028.09;;;26.41;62.19
67457;BME280;54319;52.038;4.640;2023-09-07T08:33:09;102027.19;;;26.06;64.38
67457;BME280;54319;52.038;4.640;2023-09-07T08:35:35;102023.38;;;25.86;65.37
67457;BME280;54319;52.038;4.640;2023-09-07T08:38:09;102018.16;;;25.69;67.87
67457;BME280;54319;52.038;4.640;2023-09-07T08:40:35;102019.94;;;25.49;67.16
67457;BME280;54319;52.038;4.640;2023-09-07T08:43:08;102020.19;;;25.42;68.39
67457;BME280;54319;52.038;4.640;2023-09-07T08:45:41;102017.13;;;25.34;67.66
67457;BME280;54319;52.038;4.640;2023-09-07T08:48:10;102000.19;;;25.04;68.12
67457;BME280;54319;52.038;4.640;2023-09-07T08:50:38;102025.56;;;25.18;67.42
67457;BME280;54319;52.038;4.640;2023-09-07T08:53:06;102020.53;;;25.20;66.53
67457;BME280;54319;52.038;4.640;2023-09-07T08:55:33;102016.34;;;25.28;67.05
67457;BME280;54319;52.038;4.640;2023-09-07T08:58:00;102018.81;;;25.50;65.51
67457;BME280;54319;52.038;4.640;2023-09-07T09:00:27;102016.53;;;25.57;64.97
67457;BME280;54319;52.038;4.640;2023-09-07T09:02:56;102000.03;;;25.56;64.36
67457;BME280;54319;52.038;4.640;2023-09-07T09:05:26;102006.38;;;25.77;64.67
67457;BME280;54319;52.038;4.640;2023-09-07T09:08:01;102011.94;;;25.82;63.05
67457;BME280;54319;52.038;4.640;2023-09-07T09:10:29;102016.31;;;25.99;63.43
67457;BME280;54319;52.038;4.640;2023-09-07T09:12:55;102008.44;;;26.06;64.44
67457;BME280;54319;52.038;4.640;2023-09-07T09:15:25;102008.94;;;26.19;64.14
67457;BME280;54319;52.038;4.640;2023-09-07T09:17:51;102006.31;;;26.33;63.87
67457;BME280;54319;52.038;4.640;2023-09-07T09:20:22;102016.53;;;26.48;61.98
67457;BME280;54319;52.038;4.640;2023-09-07T09:22:54;102013.69;;;26.58;62.99
67457;BME280;54319;52.038;4.640;2023-09-07T09:25:21;102010.72;;;26.73;62.47
67457;BME280;54319;52.038;4.640;2023-09-07T09:27:48;102007.84;;;26.84;60.59
67457;BME280;54319;52.038;4.640;2023-09-07T09:30:15;102008.38;;;26.86;60.23
67457;BME280;54319;52.038;4.640;2023-09-07T09:32:43;102009.78;;;26.83;61.53
67457;BME280;54319;52.038;4.640;2023-09-07T09:35:10;102011.00;;;27.07;62.00
67457;BME280;54319;52.038;4.640;2023-09-07T09:37:44;102007.06;;;27.08;59.49
67457;BME280;54319;52.038;4.640;2023-09-07T09:40:13;102012.19;;;27.25;59.60
67457;BME280;54319;52.038;4.640;2023-09-07T09:42:43;102006.25;;;27.26;58.87
67457;BME280;54319;52.038;4.640;2023-09-07T09:45:11;102010.38;;;27.34;58.58
67457;BME280;54319;52.038;4.640;2023-09-07T09:47:39;102013.31;;;27.48;58.07
67457;BME280;54319;52.038;4.640;2023-09-07T09:50:07;102012.38;;;27.58;57.63
67457;BME280;54319;52.038;4.640;2023-09-07T09:52:34;102015.19;;;27.58;57.87
67457;BME280;54319;52.038;4.640;2023-09-07T09:55:03;102010.81;;;27.71;57.27
67457;BME280;54319;52.038;4.640;2023-09-07T09:57:35;102013.47;;;27.81;55.17
67457;BME280;54319;52.038;4.640;2023-09-07T10:00:03;102013.75;;;27.80;54.30
67457;BME280;54319;52.038;4.640;2023-09-07T10:02:46;102009.44;;;27.87;53.26
67457;BME280;54319;52.038;4.640;2023-09-07T10:05:14;102007.94;;;27.95;52.63
67457;BME280;54319;52.038;4.640;2023-09-07T10:07:42;102012.84;;;28.03;52.38
67457;BME280;54319;52.038;4.640;2023-09-07T10:10:10;102008.63;;;28.06;52.50
67457;BME280;54319;52.038;4.640;2023-09-07T10:12:42;101997.84;;;28.13;52.96
67457;BME280;54319;52.038;4.640;2023-09-07T10:15:22;102001.22;;;28.15;52.42
67457;BME280;54319;52.038;4.640;2023-09-07T10:17:49;102001.91;;;28.40;51.77
67457;BME280;54319;52.038;4.640;2023-09-07T10:20:19;102001.63;;;28.42;51.83
67457;BME280;54319;52.038;4.640;2023-09-07T10:22:46;102000.19;;;28.44;51.11
67457;BME280;54319;52.038;4.640;2023-09-07T10:25:19;101992.25;;;28.33;50.98
67457;BME280;54319;52.038;4.640;2023-09-07T10:27:47;102000.34;;;28.34;50.90
67457;BME280;54319;52.038;4.640;2023-09-07T10:30:14;101986.22;;;28.39;50.19
67457;BME280;54319;52.038;4.640;2023-09-07T10:32:47;101966.94;;;28.52;49.63
67457;BME280;54319;52.038;4.640;2023-09-07T10:35:14;101994.41;;;28.69;49.61
67457;BME280;54319;52.038;4.640;2023-09-07T10:37:44;101992.72;;;28.87;49.30
67457;BME280;54319;52.038;4.640;2023-09-07T10:40:11;101989.59;;;29.02;48.66
67457;BME280;54319;52.038;4.640;2023-09-07T10:42:38;101988.34;;;29.09;49.05
67457;BME280;54319;52.038;4.640;2023-09-07T10:45:10;101982.63;;;29.14;50.89
67457;BME280;54319;52.038;4.640;2023-09-07T10:47:40;101982.31;;;29.29;49.20
67457;BME280;54319;52.038;4.640;2023-09-07T10:50:08;101981.84;;;29.41;47.97
67457;BME280;54319;52.038;4.640;2023-09-07T10:52:35;101980.88;;;29.46;46.56
67457;BME280;54319;52.038;4.640;2023-09-07T10:55:02;101976.25;;;29.64;47.97
67457;BME280;54319;52.038;4.640;2023-09-07T10:57:29;101971.78;;;29.63;49.00
67457;BME280;54319;52.038;4.640;2023-09-07T10:59:55;101966.69;;;29.51;49.71
67457;BME280;54319;52.038;4.640;2023-09-07T11:02:24;101973.09;;;29.80;49.24
67457;BME280;54319;52.038;4.640;2023-09-07T11:04:50;101973.06;;;29.94;48.52
67457;BME280;54319;52.038;4.640;2023-09-07T11:07:17;101972.09;;;29.98;48.59
67457;BME280;54319;52.038;4.640;2023-09-07T11:09:44;101933.78;;;29.88;47.47
67457;BME280;54319;52.038;4.640;2023-09-07T11:12:12;101965.03;;;30.24;48.04
67457;BME280;54319;52.038;4.640;2023-09-07T11:14:39;101960.63;;;30.31;46.12
67457;BME280;54319;52.038;4.640;2023-09-07T11:17:06;101958.22;;;30.47;46.37
67457;BME280;54319;52.038;4.640;2023-09-07T11:19:34;101960.66;;;30.63;46.93
67457;BME280;54319;52.038;4.640;2023-09-07T11:22:01;101945.25;;;30.60;47.14
67457;BME280;54319;52.038;4.640;2023-09-07T11:24:29;101953.75;;;30.69;45.12
67457;BME280;54319;52.038;4.640;2023-09-07T11:26:57;101940.03;;;30.54;45.14
67457;BME280;54319;52.038;4.640;2023-09-07T11:29:24;101953.75;;;30.69;43.20
67457;BME280;54319;52.038;4.640;2023-09-07T11:31:52;101946.16;;;30.79;41.89
67457;BME280;54319;52.038;4.640;2023-09-07T11:34:19;101945.63;;;30.68;42.44
67457;BME280;54319;52.038;4.640;2023-09-07T11:36:47;101946.16;;;30.79;43.00
67457;BME280;54319;52.038;4.640;2023-09-07T11:39:14;101943.13;;;30.66;42.57
67457;BME280;54319;52.038;4.640;2023-09-07T11:41:41;101940.69;;;30.73;42.28
67457;BME280;54319;52.038;4.640;2023-09-07T11:44:08;101936.25;;;30.90;43.35
67457;BME280;54319;52.038;4.640;2023-09-07T11:46:35;101938.22;;;30.81;42.16
67457;BME280;54319;52.038;4.640;2023-09-07T11:49:02;101931.97;;;31.01;42.15
67457;BME280;54319;52.038;4.640;2023-09-07T11:51:30;101928.22;;;31.15;42.45
67457;BME280;54319;52.038;4.640;2023-09-07T11:53:58;101927.88;;;31.08;41.26
67457;BME280;54319;52.038;4.640;2023-09-07T11:56:25;101927.50;;;31.00;41.75
67457;BME280;54319;52.038;4.640;2023-09-07T11:58:52;101920.72;;;30.93;41.60
67457;BME280;54319;52.038;4.640;2023-09-07T12:01:18;101886.03;;;30.83;42.94
67457;BME280;54319;52.038;4.640;2023-09-07T12:03:45;101920.72;;;31.01;41.58
67457;BME280;54319;52.038;4.640;2023-09-07T12:06:12;101918.25;;;31.00;42.43
67457;BME280;54319;52.038;4.640;2023-09-07T12:08:59;101910.59;;;31.00;42.71
67457;BME280;54319;52.038;4.640;2023-09-07T12:11:26;101904.81;;;31.05;43.16
67457;BME280;54319;52.038;4.640;2023-09-07T12:13:52;101895.84;;;31.03;41.72
67457;BME280;54319;52.038;4.640;2023-09-07T12:16:19;101904.34;;;31.12;42.16
67457;BME280;54319;52.038;4.640;2023-09-07T12:18:46;101897.53;;;31.04;41.59
67457;BME280;54319;52.038;4.640;2023-09-07T12:21:12;101898.88;;;31.07;41.70
67457;BME280;54319;52.038;4.640;2023-09-07T12:23:39;101895.03;;;31.03;42.40
67457;BME280;54319;52.038;4.640;2023-09-07T12:26:07;101894.84;;;30.99;41.35
67457;BME280;54319;52.038;4.640;2023-09-07T12:28:34;101893.50;;;30.88;41.98
67457;BME280;54319;52.038;4.640;2023-09-07T12:31:01;101898.13;;;30.84;41.98
67457;BME280;54319;52.038;4.640;2023-09-07T12:33:28;101893.31;;;30.84;42.16
67457;BME280;54319;52.038;4.640;2023-09-07T12:35:55;101889.22;;;30.90;41.62
67457;BME280;54319;52.038;4.640;2023-09-07T12:38:22;101880.13;;;31.02;40.20
67457;BME280;54319;52.038;4.640;2023-09-07T12:40:53;101887.59;;;31.07;41.01
67457;BME280;54319;52.038;4.640;2023-09-07T12:43:21;101881.66;;;31.09;41.40
67457;BME280;54319;52.038;4.640;2023-09-07T12:45:50;101880.97;;;31.12;41.19